sensor_id;sensor_type;location;lat;lon;timestamp;P1;durP1;ratioP1;P2;durP2;ratioP2
3757;SDS011;1894;51.038;13.692;2023-04-12T00:00:09;4.87;;;2.70;;
3757;SDS011;1894;51.038;13.692;2023-04-12T00:02:37;4.80;;;3.10;;
3757;SDS011;1894;51.038;13.692;2023-04-12T00:05:06;9.63;;;4.13;;
3757;SDS011;1894;51.038;13.692;2023-04-12T00:07:35;7.87;;;3.50;;
3757;SDS011;1894;51.038;13.692;2023-04-12T00:10:05;5.17;;;3.20;;
3757;SDS011;1894;51.038;13.692;2023-04-12T00:12:33;7.13;;;3.23;;
3757;SDS011;1894;51.038;13.692;2023-04-12T00:15:00;8.53;;;3.23;;
3757;SDS011;1894;51.038;13.692;2023-04-12T00:17:27;6.50;;;3.37;;
3757;SDS011;1894;51.038;13.692;2023-04-12T00:19:54;9.67;;;4.73;;
3757;SDS011;1894;51.038;13.692;2023-04-12T00:22:23;8.67;;;3.97;;
3757;SDS011;1894;51.038;13.692;2023-04-12T00:24:52;19.00;;;6.70;;
3757;SDS011;1894;51.038;13.692;2023-04-12T00:27:19;6.40;;;3.67;;
3757;SDS011;1894;51.038;13.692;2023-04-12T00:29:46;6.30;;;3.40;;
3757;SDS011;1894;51.038;13.692;2023-04-12T00:32:14;3.53;;;3.03;;
3757;SDS011;1894;51.038;13.692;2023-04-12T00:34:42;6.73;;;3.20;;
3757;SDS011;1894;51.038;13.692;2023-04-12T00:37:09;4.30;;;2.80;;
3757;SDS011;1894;51.038;13.692;2023-04-12T00:39:37;6.00;;;3.43;;
3757;SDS011;1894;51.038;13.692;2023-04-12T00:42:05;5.73;;;3.10;;
3757;SDS011;1894;51.038;13.692;2023-04-12T00:44:32;15.90;;;4.23;;
3757;SDS011;1894;51.038;13.692;2023-04-12T00:47:00;6.53;;;4.50;;
3757;SDS011;1894;51.038;13.692;2023-04-12T00:49:30;7.43;;;4.07;;
3757;SDS011;1894;51.038;13.692;2023-04-12T00:51:59;5.60;;;3.83;;
3757;SDS011;1894;51.038;13.692;2023-04-12T00:54:30;7.93;;;4.00;;
3757;SDS011;1894;51.038;13.692;2023-04-12T00:56:59;7.10;;;4.50;;
3757;SDS011;1894;51.038;13.692;2023-04-12T00:59:27;7.47;;;4.60;;
3757;SDS011;1894;51.038;13.692;2023-04-12T01:01:55;9.30;;;4.40;;
3757;SDS011;1894;51.038;13.692;2023-04-12T01:04:23;9.83;;;5.40;;
3757;SDS011;1894;51.038;13.692;2023-04-12T01:06:56;7.70;;;4.27;;
3757;SDS011;1894;51.038;13.692;2023-04-12T01:09:52;8.40;;;3.77;;
3757;SDS011;1894;51.038;13.692;2023-04-12T01:12:41;6.70;;;4.23;;
3757;SDS011;1894;51.038;13.692;2023-04-12T01:15:23;5.10;;;3.70;;
3757;SDS011;1894;51.038;13.692;2023-04-12T01:17:56;8.10;;;3.77;;
3757;SDS011;1894;51.038;13.692;2023-04-12T01:20:32;6.83;;;3.73;;
3757;SDS011;1894;51.038;13.692;2023-04-12T01:29:01;6.43;;;3.40;;
3757;SDS011;1894;51.038;13.692;2023-04-12T01:31:34;9.57;;;3.87;;
3757;SDS011;1894;51.038;13.692;2023-04-12T01:34:02;6.20;;;3.93;;
3757;SDS011;1894;51.038;13.692;2023-04-12T01:36:31;7.00;;;4.53;;
3757;SDS011;1894;51.038;13.692;2023-04-12T01:39:07;8.40;;;4.77;;
3757;SDS011;1894;51.038;13.692;2023-04-12T01:41:37;6.53;;;4.50;;
3757;SDS011;1894;51.038;13.692;2023-04-12T01:44:07;6.83;;;3.73;;
3757;SDS011;1894;51.038;13.692;2023-04-12T01:46:34;6.37;;;3.50;;
3757;SDS011;1894;51.038;13.692;2023-04-12T01:49:02;7.40;;;4.40;;
3757;SDS011;1894;51.038;13.692;2023-04-12T01:54:20;6.50;;;3.67;;
3757;SDS011;1894;51.038;13.692;2023-04-12T01:57:01;6.73;;;4.33;;
3757;SDS011;1894;51.038;13.692;2023-04-12T01:59:39;4.87;;;4.03;;
3757;SDS011;1894;51.038;13.692;2023-04-12T02:02:09;7.13;;;3.53;;
3757;SDS011;1894;51.038;13.692;2023-04-12T02:04:37;6.20;;;3.47;;
3757;SDS011;1894;51.038;13.692;2023-04-12T02:07:07;8.27;;;4.40;;
3757;SDS011;1894;51.038;13.692;2023-04-12T02:09:35;8.07;;;4.47;;
3757;SDS011;1894;51.038;13.692;2023-04-12T02:12:06;8.17;;;4.00;;
3757;SDS011;1894;51.038;13.692;2023-04-12T02:14:34;9.13;;;4.03;;
3757;SDS011;1894;51.038;13.692;2023-04-12T02:17:02;7.03;;;3.87;;
3757;SDS011;1894;51.038;13.692;2023-04-12T02:19:31;8.13;;;4.80;;
3757;SDS011;1894;51.038;13.692;2023-04-12T02:21:59;8.87;;;4.40;;
3757;SDS011;1894;51.038;13.692;2023-04-12T02:24:28;8.20;;;4.10;;
3757;SDS011;1894;51.038;13.692;2023-04-12T02:26:56;7.10;;;4.33;;
3757;SDS011;1894;51.038;13.692;2023-04-12T02:29:25;7.67;;;4.50;;
3757;SDS011;1894;51.038;13.692;2023-04-12T02:31:52;5.20;;;4.00;;
3757;SDS011;1894;51.038;13.692;2023-04-12T02:34:22;5.63;;;4.57;;
3757;SDS011;1894;51.038;13.692;2023-04-12T02:36:57;5.03;;;3.90;;
3757;SDS011;1894;51.038;13.692;2023-04-12T02:39:24;8.23;;;3.97;;
3757;SDS011;1894;51.038;13.692;2023-04-12T02:41:52;8.43;;;4.33;;
3757;SDS011;1894;51.038;13.692;2023-04-12T02:44:19;8.67;;;3.40;;
3757;SDS011;1894;51.038;13.692;2023-04-12T02:47:09;6.33;;;4.13;;
3757;SDS011;1894;51.038;13.692;2023-04-12T02:49:38;4.90;;;4.13;;
3757;SDS011;1894;51.038;13.692;2023-04-12T02:52:06;7.27;;;4.40;;
3757;SDS011;1894;51.038;13.692;2023-04-12T02:54:40;7.27;;;4.90;;
3757;SDS011;1894;51.038;13.692;2023-04-12T02:57:13;8.00;;;4.40;;
3757;SDS011;1894;51.038;13.692;2023-04-12T02:59:44;5.43;;;4.43;;
3757;SDS011;1894;51.038;13.692;2023-04-12T03:02:17;6.70;;;5.27;;
3757;SDS011;1894;51.038;13.692;2023-04-12T03:04:51;9.40;;;5.00;;
3757;SDS011;1894;51.038;13.692;2023-04-12T03:07:24;10.13;;;4.80;;
3757;SDS011;1894;51.038;13.692;2023-04-12T03:09:52;6.33;;;4.40;;
3757;SDS011;1894;51.038;13.692;2023-04-12T03:12:21;6.33;;;4.47;;
3757;SDS011;1894;51.038;13.692;2023-04-12T03:15:12;5.20;;;4.00;;
3757;SDS011;1894;51.038;13.692;2023-04-12T03:17:42;7.77;;;4.80;;
3757;SDS011;1894;51.038;13.692;2023-04-12T03:20:11;8.70;;;4.53;;
3757;SDS011;1894;51.038;13.692;2023-04-12T03:22:47;8.00;;;4.53;;
3757;SDS011;1894;51.038;13.692;2023-04-12T03:25:14;5.90;;;4.20;;
3757;SDS011;1894;51.038;13.692;2023-04-12T03:27:50;7.53;;;4.70;;
3757;SDS011;1894;51.038;13.692;2023-04-12T03:30:20;7.30;;;4.57;;
3757;SDS011;1894;51.038;13.692;2023-04-12T03:32:49;9.50;;;5.07;;
3757;SDS011;1894;51.038;13.692;2023-04-12T03:35:17;6.33;;;4.53;;
3757;SDS011;1894;51.038;13.692;2023-04-12T03:37:45;9.07;;;5.60;;
3757;SDS011;1894;51.038;13.692;2023-04-12T03:40:13;7.77;;;4.73;;
3757;SDS011;1894;51.038;13.692;2023-04-12T03:42:48;6.50;;;4.53;;
3757;SDS011;1894;51.038;13.692;2023-04-12T03:45:15;4.90;;;3.90;;
3757;SDS011;1894;51.038;13.692;2023-04-12T03:47:50;10.80;;;5.20;;
3757;SDS011;1894;51.038;13.692;2023-04-12T03:50:18;9.80;;;5.00;;
3757;SDS011;1894;51.038;13.692;2023-04-12T03:52:53;10.47;;;4.23;;
3757;SDS011;1894;51.038;13.692;2023-04-12T03:55:26;13.80;;;4.40;;
3757;SDS011;1894;51.038;13.692;2023-04-12T03:57:55;7.47;;;3.97;;
3757;SDS011;1894;51.038;13.692;2023-04-12T04:00:28;5.97;;;3.73;;
3757;SDS011;1894;51.038;13.692;2023-04-12T04:03:05;6.30;;;3.83;;
3757;SDS011;1894;51.038;13.692;2023-04-12T04:05:40;8.17;;;4.40;;
3757;SDS011;1894;51.038;13.692;2023-04-12T04:08:08;7.53;;;3.80;;
3757;SDS011;1894;51.038;13.692;2023-04-12T04:10:47;5.63;;;3.60;;
3757;SDS011;1894;51.038;13.692;2023-04-12T04:13:15;5.63;;;4.17;;
3757;SDS011;1894;51.038;13.692;2023-04-12T04:15:42;8.37;;;3.67;;
3757;SDS011;1894;51.038;13.692;2023-04-12T04:18:10;6.43;;;4.03;;
3757;SDS011;1894;51.038;13.692;2023-04-12T04:20:37;10.43;;;3.23;;
3757;SDS011;1894;51.038;13.692;2023-04-12T04:23:04;6.63;;;4.47;;
3757;SDS011;1894;51.038;13.692;2023-04-12T04:25:33;6.73;;;4.33;;
3757;SDS011;1894;51.038;13.692;2023-04-12T04:28:07;4.70;;;3.70;;
3757;SDS011;1894;51.038;13.692;2023-04-12T04:30:36;6.20;;;4.30;;
3757;SDS011;1894;51.038;13.692;2023-04-12T04:33:11;7.50;;;4.80;;
3757;SDS011;1894;51.038;13.692;2023-04-12T04:35:39;10.73;;;4.97;;
3757;SDS011;1894;51.038;13.692;2023-04-12T04:38:24;6.43;;;3.77;;
3757;SDS011;1894;51.038;13.692;2023-04-12T04:41:00;6.53;;;4.03;;
3757;SDS011;1894;51.038;13.692;2023-04-12T04:43:49;7.43;;;4.20;;
3757;SDS011;1894;51.038;13.692;2023-04-12T04:46:18;11.73;;;4.23;;
3757;SDS011;1894;51.038;13.692;2023-04-12T04:48:48;5.90;;;3.73;;
3757;SDS011;1894;51.038;13.692;2023-04-12T04:51:20;7.67;;;4.10;;
3757;SDS011;1894;51.038;13.692;2023-04-12T04:53:48;9.03;;;3.50;;
3757;SDS011;1894;51.038;13.692;2023-04-12T04:56:16;4.17;;;3.77;;
3757;SDS011;1894;51.038;13.692;2023-04-12T04:58:48;3.40;;;3.10;;
3757;SDS011;1894;51.038;13.692;2023-04-12T05:01:17;5.33;;;3.53;;
3757;SDS011;1894;51.038;13.692;2023-04-12T05:03:47;5.93;;;3.13;;
3757;SDS011;1894;51.038;13.692;2023-04-12T05:06:17;7.63;;;3.07;;
3757;SDS011;1894;51.038;13.692;2023-04-12T05:08:45;5.50;;;3.37;;
3757;SDS011;1894;51.038;13.692;2023-04-12T05:11:15;4.90;;;3.50;;
3757;SDS011;1894;51.038;13.692;2023-04-12T05:13:43;5.03;;;2.70;;
3757;SDS011;1894;51.038;13.692;2023-04-12T05:16:10;11.90;;;4.20;;
3757;SDS011;1894;51.038;13.692;2023-04-12T05:18:38;5.83;;;2.87;;
3757;SDS011;1894;51.038;13.692;2023-04-12T05:21:05;7.30;;;2.97;;
3757;SDS011;1894;51.038;13.692;2023-04-12T05:23:40;3.93;;;3.53;;
3757;SDS011;1894;51.038;13.692;2023-04-12T05:26:11;5.67;;;2.80;;
3757;SDS011;1894;51.038;13.692;2023-04-12T05:28:43;7.27;;;3.03;;
3757;SDS011;1894;51.038;13.692;2023-04-12T05:31:12;5.63;;;3.17;;
3757;SDS011;1894;51.038;13.692;2023-04-12T05:33:39;5.03;;;2.80;;
3757;SDS011;1894;51.038;13.692;2023-04-12T05:36:07;5.03;;;2.37;;
3757;SDS011;1894;51.038;13.692;2023-04-12T05:38:34;5.07;;;1.97;;
3757;SDS011;1894;51.038;13.692;2023-04-12T05:41:07;10.50;;;2.50;;
3757;SDS011;1894;51.038;13.692;2023-04-12T05:43:35;2.43;;;2.20;;
3757;SDS011;1894;51.038;13.692;2023-04-12T05:46:05;5.00;;;2.80;;
3757;SDS011;1894;51.038;13.692;2023-04-12T05:48:34;10.57;;;3.60;;
3757;SDS011;1894;51.038;13.692;2023-04-12T05:51:02;3.27;;;2.10;;
3757;SDS011;1894;51.038;13.692;2023-04-12T05:53:30;5.67;;;2.47;;
3757;SDS011;1894;51.038;13.692;2023-04-12T05:56:01;3.10;;;1.87;;
3757;SDS011;1894;51.038;13.692;2023-04-12T05:58:30;5.73;;;3.77;;
3757;SDS011;1894;51.038;13.692;2023-04-12T06:00:58;2.50;;;1.70;;
3757;SDS011;1894;51.038;13.692;2023-04-12T06:03:25;3.30;;;2.03;;
3757;SDS011;1894;51.038;13.692;2023-04-12T06:06:00;4.80;;;2.33;;
3757;SDS011;1894;51.038;13.692;2023-04-12T06:08:28;5.10;;;2.53;;
3757;SDS011;1894;51.038;13.692;2023-04-12T06:10:55;4.00;;;1.70;;
3757;SDS011;1894;51.038;13.692;2023-04-12T06:13:24;3.00;;;1.63;;
3757;SDS011;1894;51.038;13.692;2023-04-12T06:15:52;6.50;;;2.37;;
3757;SDS011;1894;51.038;13.692;2023-04-12T06:18:21;3.37;;;2.37;;
3757;SDS011;1894;51.038;13.692;2023-04-12T06:20:48;6.47;;;1.87;;
3757;SDS011;1894;51.038;13.692;2023-04-12T06:23:16;4.73;;;2.13;;
3757;SDS011;1894;51.038;13.692;2023-04-12T06:25:46;3.20;;;2.07;;
3757;SDS011;1894;51.038;13.692;2023-04-12T06:28:14;7.67;;;2.30;;
3757;SDS011;1894;51.038;13.692;2023-04-12T06:30:45;3.97;;;2.20;;
3757;SDS011;1894;51.038;13.692;2023-04-12T06:33:12;6.70;;;2.17;;
3757;SDS011;1894;51.038;13.692;2023-04-12T06:35:41;6.27;;;2.57;;
3757;SDS011;1894;51.038;13.692;2023-04-12T06:38:08;8.10;;;5.27;;
3757;SDS011;1894;51.038;13.692;2023-04-12T06:40:35;20.37;;;3.90;;
3757;SDS011;1894;51.038;13.692;2023-04-12T06:43:03;3.93;;;2.20;;
3757;SDS011;1894;51.038;13.692;2023-04-12T06:45:31;9.53;;;6.20;;
3757;SDS011;1894;51.038;13.692;2023-04-12T06:47:58;3.87;;;2.80;;
3757;SDS011;1894;51.038;13.692;2023-04-12T06:50:25;16.50;;;5.40;;
3757;SDS011;1894;51.038;13.692;2023-04-12T06:52:52;4.50;;;2.80;;
3757;SDS011;1894;51.038;13.692;2023-04-12T06:55:20;5.50;;;2.80;;
3757;SDS011;1894;51.038;13.692;2023-04-12T06:57:47;6.10;;;3.80;;
3757;SDS011;1894;51.038;13.692;2023-04-12T07:00:17;7.00;;;3.00;;
3757;SDS011;1894;51.038;13.692;2023-04-12T07:02:44;6.83;;;3.03;;
3757;SDS011;1894;51.038;13.692;2023-04-12T07:05:12;5.20;;;3.70;;
3757;SDS011;1894;51.038;13.692;2023-04-12T07:07:40;6.67;;;3.40;;
3757;SDS011;1894;51.038;13.692;2023-04-12T07:10:07;9.80;;;3.43;;
3757;SDS011;1894;51.038;13.692;2023-04-12T07:12:34;5.70;;;3.20;;
3757;SDS011;1894;51.038;13.692;2023-04-12T07:15:02;3.63;;;2.67;;
3757;SDS011;1894;51.038;13.692;2023-04-12T07:17:29;10.33;;;4.27;;
3757;SDS011;1894;51.038;13.692;2023-04-12T07:19:56;5.87;;;3.60;;
3757;SDS011;1894;51.038;13.692;2023-04-12T07:22:24;4.10;;;3.60;;
3757;SDS011;1894;51.038;13.692;2023-04-12T07:24:51;5.80;;;3.57;;
3757;SDS011;1894;51.038;13.692;2023-04-12T07:27:18;7.17;;;3.67;;
3757;SDS011;1894;51.038;13.692;2023-04-12T07:29:46;10.13;;;5.37;;
3757;SDS011;1894;51.038;13.692;2023-04-12T07:32:13;7.23;;;3.80;;
3757;SDS011;1894;51.038;13.692;2023-04-12T07:34:40;8.10;;;4.87;;
3757;SDS011;1894;51.038;13.692;2023-04-12T07:37:07;5.80;;;3.80;;
3757;SDS011;1894;51.038;13.692;2023-04-12T07:39:35;5.03;;;4.40;;
3757;SDS011;1894;51.038;13.692;2023-04-12T07:42:03;9.70;;;5.27;;
3757;SDS011;1894;51.038;13.692;2023-04-12T07:44:30;4.80;;;4.13;;
3757;SDS011;1894;51.038;13.692;2023-04-12T07:47:01;6.60;;;4.70;;
3757;SDS011;1894;51.038;13.692;2023-04-12T07:49:28;9.80;;;4.87;;
3757;SDS011;1894;51.038;13.692;2023-04-12T07:51:56;6.43;;;4.93;;
3757;SDS011;1894;51.038;13.692;2023-04-12T07:54:25;6.23;;;4.00;;
3757;SDS011;1894;51.038;13.692;2023-04-12T07:57:00;5.33;;;4.00;;
3757;SDS011;1894;51.038;13.692;2023-04-12T07:59:29;4.83;;;3.63;;
3757;SDS011;1894;51.038;13.692;2023-04-12T08:01:57;4.70;;;3.90;;
3757;SDS011;1894;51.038;13.692;2023-04-12T08:04:25;6.30;;;4.20;;
3757;SDS011;1894;51.038;13.692;2023-04-12T08:06:54;6.47;;;4.10;;
3757;SDS011;1894;51.038;13.692;2023-04-12T08:09:21;4.53;;;3.30;;
3757;SDS011;1894;51.038;13.692;2023-04-12T08:11:48;3.53;;;2.67;;
3757;SDS011;1894;51.038;13.692;2023-04-12T08:14:16;1.97;;;1.53;;
3757;SDS011;1894;51.038;13.692;2023-04-12T08:16:43;2.87;;;1.40;;
3757;SDS011;1894;51.038;13.692;2023-04-12T08:19:10;4.33;;;1.30;;
3757;SDS011;1894;51.038;13.692;2023-04-12T08:21:37;4.53;;;1.00;;
3757;SDS011;1894;51.038;13.692;2023-04-12T08:24:05;1.63;;;0.97;;
3757;SDS011;1894;51.038;13.692;2023-04-12T08:26:32;4.63;;;1.07;;
3757;SDS011;1894;51.038;13.692;2023-04-12T08:29:00;2.57;;;1.10;;
3757;SDS011;1894;51.038;13.692;2023-04-12T08:31:27;5.07;;;1.30;;
3757;SDS011;1894;51.038;13.692;2023-04-12T08:33:54;5.43;;;1.07;;
3757;SDS011;1894;51.038;13.692;2023-04-12T08:36:22;3.53;;;1.00;;
3757;SDS011;1894;51.038;13.692;2023-04-12T08:38:49;4.23;;;1.77;;
3757;SDS011;1894;51.038;13.692;2023-04-12T08:41:18;6.77;;;1.60;;
3757;SDS011;1894;51.038;13.692;2023-04-12T08:43:46;2.30;;;1.20;;
3757;SDS011;1894;51.038;13.692;2023-04-12T08:46:14;4.70;;;0.90;;
3757;SDS011;1894;51.038;13.692;2023-04-12T08:48:43;4.03;;;1.20;;
3757;SDS011;1894;51.038;13.692;2023-04-12T08:51:12;4.40;;;1.10;;
3757;SDS011;1894;51.038;13.692;2023-04-12T08:53:42;2.70;;;1.17;;
3757;SDS011;1894;51.038;13.692;2023-04-12T08:56:10;2.87;;;1.07;;
3757;SDS011;1894;51.038;13.692;2023-04-12T08:58:39;3.80;;;1.10;;
3757;SDS011;1894;51.038;13.692;2023-04-12T09:01:11;3.17;;;1.10;;
3757;SDS011;1894;51.038;13.692;2023-04-12T09:03:42;5.30;;;1.13;;
3757;SDS011;1894;51.038;13.692;2023-04-12T09:06:10;2.70;;;0.97;;
3757;SDS011;1894;51.038;13.692;2023-04-12T09:08:51;3.13;;;1.10;;
3757;SDS011;1894;51.038;13.692;2023-04-12T09:11:24;3.00;;;1.00;;
3757;SDS011;1894;51.038;13.692;2023-04-12T09:13:54;3.17;;;1.07;;
3757;SDS011;1894;51.038;13.692;2023-04-12T09:16:32;5.17;;;1.30;;
3757;SDS011;1894;51.038;13.692;2023-04-12T09:19:06;2.53;;;0.90;;
3757;SDS011;1894;51.038;13.692;2023-04-12T09:21:35;3.87;;;1.30;;
3757;SDS011;1894;51.038;13.692;2023-04-12T09:24:07;2.30;;;1.10;;
3757;SDS011;1894;51.038;13.692;2023-04-12T09:26:39;2.30;;;0.87;;
3757;SDS011;1894;51.038;13.692;2023-04-12T09:29:20;4.90;;;1.13;;
3757;SDS011;1894;51.038;13.692;2023-04-12T09:31:55;2.30;;;1.00;;
3757;SDS011;1894;51.038;13.692;2023-04-12T09:34:30;2.27;;;1.27;;
3757;SDS011;1894;51.038;13.692;2023-04-12T09:36:58;4.57;;;1.33;;
3757;SDS011;1894;51.038;13.692;2023-04-12T09:39:32;1.90;;;1.10;;
3757;SDS011;1894;51.038;13.692;2023-04-12T09:42:08;3.00;;;1.03;;
3757;SDS011;1894;51.038;13.692;2023-04-12T09:44:57;5.00;;;1.43;;
3757;SDS011;1894;51.038;13.692;2023-04-12T09:47:37;3.70;;;1.03;;
3757;SDS011;1894;51.038;13.692;2023-04-12T09:50:07;10.10;;;1.27;;
3757;SDS011;1894;51.038;13.692;2023-04-12T09:52:38;1.97;;;0.80;;
3757;SDS011;1894;51.038;13.692;2023-04-12T09:55:07;1.50;;;1.00;;
3757;SDS011;1894;51.038;13.692;2023-04-12T09:57:36;2.03;;;1.20;;
3757;SDS011;1894;51.038;13.692;2023-04-12T10:00:07;2.83;;;1.03;;
3757;SDS011;1894;51.038;13.692;2023-04-12T10:02:53;6.80;;;1.47;;
3757;SDS011;1894;51.038;13.692;2023-04-12T10:05:23;4.23;;;1.10;;
3757;SDS011;1894;51.038;13.692;2023-04-12T10:07:55;3.70;;;0.90;;
3757;SDS011;1894;51.038;13.692;2023-04-12T10:10:26;1.60;;;1.20;;
3757;SDS011;1894;51.038;13.692;2023-04-12T10:12:55;5.33;;;1.00;;
3757;SDS011;1894;51.038;13.692;2023-04-12T10:15:23;2.50;;;1.17;;
3757;SDS011;1894;51.038;13.692;2023-04-12T10:17:56;2.70;;;1.23;;
3757;SDS011;1894;51.038;13.692;2023-04-12T10:20:24;6.60;;;1.10;;
3757;SDS011;1894;51.038;13.692;2023-04-12T10:22:55;1.60;;;1.00;;
3757;SDS011;1894;51.038;13.692;2023-04-12T10:25:27;7.77;;;1.10;;
3757;SDS011;1894;51.038;13.692;2023-04-12T10:27:58;2.13;;;1.07;;
3757;SDS011;1894;51.038;13.692;2023-04-12T10:30:47;3.70;;;1.07;;
3757;SDS011;1894;51.038;13.692;2023-04-12T10:33:18;3.37;;;1.20;;
3757;SDS011;1894;51.038;13.692;2023-04-12T10:36:00;5.27;;;1.30;;
3757;SDS011;1894;51.038;13.692;2023-04-12T10:38:43;2.27;;;0.87;;
3757;SDS011;1894;51.038;13.692;2023-04-12T10:41:18;6.97;;;1.00;;
3757;SDS011;1894;51.038;13.692;2023-04-12T10:43:47;3.80;;;2.00;;
3757;SDS011;1894;51.038;13.692;2023-04-12T10:49:07;5.27;;;1.50;;
3757;SDS011;1894;51.038;13.692;2023-04-12T10:54:36;6.60;;;1.80;;
3757;SDS011;1894;51.038;13.692;2023-04-12T10:57:05;7.10;;;1.93;;
3757;SDS011;1894;51.038;13.692;2023-04-12T10:59:51;5.50;;;1.40;;
3757;SDS011;1894;51.038;13.692;2023-04-12T11:02:22;7.53;;;1.73;;
3757;SDS011;1894;51.038;13.692;2023-04-12T11:08:08;6.37;;;2.13;;
3757;SDS011;1894;51.038;13.692;2023-04-12T11:10:38;7.50;;;2.60;;
3757;SDS011;1894;51.038;13.692;2023-04-12T11:13:13;9.80;;;2.60;;
3757;SDS011;1894;51.038;13.692;2023-04-12T11:15:40;4.27;;;2.30;;
3757;SDS011;1894;51.038;13.692;2023-04-12T11:18:11;6.70;;;2.67;;
3757;SDS011;1894;51.038;13.692;2023-04-12T11:20:38;8.53;;;3.13;;
3757;SDS011;1894;51.038;13.692;2023-04-12T11:23:06;4.00;;;2.90;;
3757;SDS011;1894;51.038;13.692;2023-04-12T11:25:36;7.37;;;2.60;;
3757;SDS011;1894;51.038;13.692;2023-04-12T11:28:04;5.77;;;2.90;;
3757;SDS011;1894;51.038;13.692;2023-04-12T11:30:51;4.90;;;2.80;;
3757;SDS011;1894;51.038;13.692;2023-04-12T11:36:11;8.03;;;2.10;;
3757;SDS011;1894;51.038;13.692;2023-04-12T11:38:38;8.20;;;3.30;;
3757;SDS011;1894;51.038;13.692;2023-04-12T11:41:07;2.40;;;1.93;;
3757;SDS011;1894;51.038;13.692;2023-04-12T11:43:35;5.30;;;2.27;;
3757;SDS011;1894;51.038;13.692;2023-04-12T11:46:06;5.50;;;2.50;;
3757;SDS011;1894;51.038;13.692;2023-04-12T11:48:33;2.90;;;2.20;;
3757;SDS011;1894;51.038;13.692;2023-04-12T11:51:17;6.90;;;2.73;;
3757;SDS011;1894;51.038;13.692;2023-04-12T11:53:57;2.90;;;2.37;;
3757;SDS011;1894;51.038;13.692;2023-04-12T11:56:25;3.67;;;1.40;;
3757;SDS011;1894;51.038;13.692;2023-04-12T11:58:54;6.97;;;2.50;;
3757;SDS011;1894;51.038;13.692;2023-04-12T12:01:21;3.00;;;1.83;;
3757;SDS011;1894;51.038;13.692;2023-04-12T12:03:49;4.20;;;2.10;;
3757;SDS011;1894;51.038;13.692;2023-04-12T12:06:17;4.60;;;1.63;;
3757;SDS011;1894;51.038;13.692;2023-04-12T12:08:47;4.50;;;2.07;;
3757;SDS011;1894;51.038;13.692;2023-04-12T12:11:21;6.13;;;1.50;;
3757;SDS011;1894;51.038;13.692;2023-04-12T12:13:51;5.10;;;2.20;;
3757;SDS011;1894;51.038;13.692;2023-04-12T12:16:27;4.63;;;2.23;;
3757;SDS011;1894;51.038;13.692;2023-04-12T12:18:56;4.43;;;2.10;;
3757;SDS011;1894;51.038;13.692;2023-04-12T12:21:23;2.63;;;1.80;;
3757;SDS011;1894;51.038;13.692;2023-04-12T12:23:52;3.73;;;2.03;;
3757;SDS011;1894;51.038;13.692;2023-04-12T12:26:23;3.33;;;1.83;;
3757;SDS011;1894;51.038;13.692;2023-04-12T12:28:54;1.73;;;1.50;;
3757;SDS011;1894;51.038;13.692;2023-04-12T12:31:23;3.20;;;2.23;;
3757;SDS011;1894;51.038;13.692;2023-04-12T12:33:54;3.10;;;1.87;;
3757;SDS011;1894;51.038;13.692;2023-04-12T12:36:43;2.23;;;1.83;;
3757;SDS011;1894;51.038;13.692;2023-04-12T12:39:22;5.50;;;1.97;;
3757;SDS011;1894;51.038;13.692;2023-04-12T12:41:52;5.67;;;2.33;;
3757;SDS011;1894;51.038;13.692;2023-04-12T12:44:23;5.43;;;2.50;;
3757;SDS011;1894;51.038;13.692;2023-04-12T12:46:51;5.03;;;1.90;;
3757;SDS011;1894;51.038;13.692;2023-04-12T12:49:28;5.03;;;1.60;;
3757;SDS011;1894;51.038;13.692;2023-04-12T12:51:55;3.30;;;1.50;;
3757;SDS011;1894;51.038;13.692;2023-04-12T12:54:22;5.03;;;1.23;;
3757;SDS011;1894;51.038;13.692;2023-04-12T12:57:06;10.97;;;1.97;;
3757;SDS011;1894;51.038;13.692;2023-04-12T12:59:33;4.10;;;1.20;;
3757;SDS011;1894;51.038;13.692;2023-04-12T13:02:00;6.63;;;1.37;;
3757;SDS011;1894;51.038;13.692;2023-04-12T13:04:28;3.37;;;1.53;;
3757;SDS011;1894;51.038;13.692;2023-04-12T13:06:55;2.43;;;1.50;;
3757;SDS011;1894;51.038;13.692;2023-04-12T13:09:22;2.80;;;1.27;;
3757;SDS011;1894;51.038;13.692;2023-04-12T13:11:50;3.00;;;1.47;;
3757;SDS011;1894;51.038;13.692;2023-04-12T13:14:17;6.40;;;1.63;;
3757;SDS011;1894;51.038;13.692;2023-04-12T13:16:44;2.57;;;1.10;;
3757;SDS011;1894;51.038;13.692;2023-04-12T13:19:14;3.93;;;1.17;;
3757;SDS011;1894;51.038;13.692;2023-04-12T13:21:41;7.77;;;1.20;;
3757;SDS011;1894;51.038;13.692;2023-04-12T13:24:08;1.73;;;0.90;;
3757;SDS011;1894;51.038;13.692;2023-04-12T13:26:35;3.50;;;1.30;;
3757;SDS011;1894;51.038;13.692;2023-04-12T13:29:03;6.10;;;1.20;;
3757;SDS011;1894;51.038;13.692;2023-04-12T13:31:30;4.00;;;1.10;;
3757;SDS011;1894;51.038;13.692;2023-04-12T13:33:57;3.23;;;1.27;;
3757;SDS011;1894;51.038;13.692;2023-04-12T13:36:24;4.50;;;1.20;;
3757;SDS011;1894;51.038;13.692;2023-04-12T13:38:52;6.67;;;1.53;;
3757;SDS011;1894;51.038;13.692;2023-04-12T13:41:19;3.10;;;1.07;;
3757;SDS011;1894;51.038;13.692;2023-04-12T13:43:46;2.03;;;1.10;;
3757;SDS011;1894;51.038;13.692;2023-04-12T13:46:13;3.83;;;1.10;;
3757;SDS011;1894;51.038;13.692;2023-04-12T13:48:41;2.27;;;1.03;;
3757;SDS011;1894;51.038;13.692;2023-04-12T13:51:08;2.27;;;1.20;;
3757;SDS011;1894;51.038;13.692;2023-04-12T13:53:35;9.27;;;1.30;;
3757;SDS011;1894;51.038;13.692;2023-04-12T13:56:03;11.67;;;1.00;;
3757;SDS011;1894;51.038;13.692;2023-04-12T13:58:30;5.20;;;1.00;;
3757;SDS011;1894;51.038;13.692;2023-04-12T14:00:57;2.70;;;1.27;;
3757;SDS011;1894;51.038;13.692;2023-04-12T14:03:26;2.60;;;1.13;;
3757;SDS011;1894;51.038;13.692;2023-04-12T14:05:53;2.30;;;0.80;;
3757;SDS011;1894;51.038;13.692;2023-04-12T14:08:20;18.03;;;1.70;;
3757;SDS011;1894;51.038;13.692;2023-04-12T14:10:47;6.00;;;1.17;;
3757;SDS011;1894;51.038;13.692;2023-04-12T14:13:15;2.47;;;1.27;;
3757;SDS011;1894;51.038;13.692;2023-04-12T14:15:42;3.23;;;1.20;;
3757;SDS011;1894;51.038;13.692;2023-04-12T14:18:09;2.20;;;1.00;;
3757;SDS011;1894;51.038;13.692;2023-04-12T14:20:36;2.13;;;1.00;;
3757;SDS011;1894;51.038;13.692;2023-04-12T14:23:03;2.47;;;1.00;;
3757;SDS011;1894;51.038;13.692;2023-04-12T14:25:33;3.67;;;1.17;;
3757;SDS011;1894;51.038;13.692;2023-04-12T14:28:04;3.30;;;1.60;;
3757;SDS011;1894;51.038;13.692;2023-04-12T14:30:32;4.00;;;1.60;;
3757;SDS011;1894;51.038;13.692;2023-04-12T14:32:59;3.03;;;1.00;;
3757;SDS011;1894;51.038;13.692;2023-04-12T14:35:26;5.40;;;1.43;;
3757;SDS011;1894;51.038;13.692;2023-04-12T14:37:53;1.70;;;1.30;;
3757;SDS011;1894;51.038;13.692;2023-04-12T14:40:21;8.60;;;2.37;;
3757;SDS011;1894;51.038;13.692;2023-04-12T14:42:48;4.33;;;1.90;;
3757;SDS011;1894;51.038;13.692;2023-04-12T14:45:15;3.80;;;1.10;;
3757;SDS011;1894;51.038;13.692;2023-04-12T14:47:44;3.80;;;2.27;;
3757;SDS011;1894;51.038;13.692;2023-04-12T14:50:11;4.40;;;1.40;;
3757;SDS011;1894;51.038;13.692;2023-04-12T14:52:38;3.83;;;1.27;;
3757;SDS011;1894;51.038;13.692;2023-04-12T14:55:06;3.13;;;1.10;;
3757;SDS011;1894;51.038;13.692;2023-04-12T14:57:33;5.77;;;2.17;;
3757;SDS011;1894;51.038;13.692;2023-04-12T15:00:00;1.73;;;1.47;;
3757;SDS011;1894;51.038;13.692;2023-04-12T15:02:28;4.33;;;1.53;;
3757;SDS011;1894;51.038;13.692;2023-04-12T15:04:55;5.03;;;1.50;;
3757;SDS011;1894;51.038;13.692;2023-04-12T15:07:23;3.10;;;1.63;;
3757;SDS011;1894;51.038;13.692;2023-04-12T15:09:50;3.63;;;1.77;;
3757;SDS011;1894;51.038;13.692;2023-04-12T15:12:17;7.13;;;2.43;;
3757;SDS011;1894;51.038;13.692;2023-04-12T15:14:44;2.30;;;1.97;;
3757;SDS011;1894;51.038;13.692;2023-04-12T15:17:12;2.50;;;1.57;;
3757;SDS011;1894;51.038;13.692;2023-04-12T15:19:39;4.30;;;2.13;;
3757;SDS011;1894;51.038;13.692;2023-04-12T15:22:06;7.70;;;1.83;;
3757;SDS011;1894;51.038;13.692;2023-04-12T15:24:33;3.93;;;1.90;;
3757;SDS011;1894;51.038;13.692;2023-04-12T15:27:01;4.23;;;1.70;;
3757;SDS011;1894;51.038;13.692;2023-04-12T15:29:32;3.63;;;1.57;;
3757;SDS011;1894;51.038;13.692;2023-04-12T15:32:00;3.67;;;2.00;;
3757;SDS011;1894;51.038;13.692;2023-04-12T15:34:28;7.00;;;2.17;;
3757;SDS011;1894;51.038;13.692;2023-04-12T15:36:55;8.20;;;2.07;;